CU-0038 weather

Public forecast

Using degrees Celsius for public forecast. Weather courtesy of forecast.io.

Closest aviation weather report (METAR) to Fundo de Buena Ventura Airport

Closest report is Ignacio Agramonte International Airport, 35.6 nm (66.0 km) NE. Retrieved 2020/08/10 23:50 UTC (39 minutes ago):

MUCM 102350Z 03012KT 9000 FEW020 28/23 Q1015

Closest aviation forecast (TAF) to Fundo de Buena Ventura Airport

Closest forecast is Ignacio Agramonte International Airport, 35.6 nm (66.0 km) NE. Retrieved 2020-08-11 00:03 UTC (26 minutes ago):

TAF TAF MUCM 102300Z 1100/1124 03013KT 9000 SCT020 BECMG 1102/1104 04005KT BECMG 1115/1117 06012KT TEMPO 1118/1124 VRB10KT 5000 TSRA SCT018CB BKN020